sensor_id;sensor_type;location;lat;lon;timestamp;P1;durP1;ratioP1;P2;durP2;ratioP2
38435;SDS011;24220;48.168;14.024;2023-03-05T00:01:13;23.85;;;17.10;;
38435;SDS011;24220;48.168;14.024;2023-03-05T00:03:42;24.48;;;17.17;;
38435;SDS011;24220;48.168;14.024;2023-03-05T00:06:10;26.70;;;17.30;;
38435;SDS011;24220;48.168;14.024;2023-03-05T00:08:38;24.15;;;16.45;;
38435;SDS011;24220;48.168;14.024;2023-03-05T00:11:09;23.80;;;17.05;;
38435;SDS011;24220;48.168;14.024;2023-03-05T00:13:37;23.77;;;17.88;;
38435;SDS011;24220;48.168;14.024;2023-03-05T00:16:06;28.02;;;17.70;;
38435;SDS011;24220;48.168;14.024;2023-03-05T00:18:36;25.63;;;17.40;;
38435;SDS011;24220;48.168;14.024;2023-03-05T00:21:12;23.10;;;16.85;;
38435;SDS011;24220;48.168;14.024;2023-03-05T00:23:49;21.88;;;16.75;;
38435;SDS011;24220;48.168;14.024;2023-03-05T00:26:20;24.27;;;17.73;;
38435;SDS011;24220;48.168;14.024;2023-03-05T00:28:49;19.92;;;15.57;;
38435;SDS011;24220;48.168;14.024;2023-03-05T00:31:22;24.70;;;17.88;;
38435;SDS011;24220;48.168;14.024;2023-03-05T00:33:52;25.15;;;17.13;;
38435;SDS011;24220;48.168;14.024;2023-03-05T00:36:23;23.02;;;16.20;;
38435;SDS011;24220;48.168;14.024;2023-03-05T00:38:56;25.15;;;17.23;;
38435;SDS011;24220;48.168;14.024;2023-03-05T00:41:24;21.70;;;16.42;;
38435;SDS011;24220;48.168;14.024;2023-03-05T00:43:56;23.33;;;16.05;;
38435;SDS011;24220;48.168;14.024;2023-03-05T00:46:23;22.67;;;15.98;;
38435;SDS011;24220;48.168;14.024;2023-03-05T00:48:55;22.50;;;16.38;;
38435;SDS011;24220;48.168;14.024;2023-03-05T00:51:25;24.13;;;16.90;;
38435;SDS011;24220;48.168;14.024;2023-03-05T00:53:53;21.23;;;16.55;;
38435;SDS011;24220;48.168;14.024;2023-03-05T00:56:23;24.60;;;16.52;;
38435;SDS011;24220;48.168;14.024;2023-03-05T00:58:50;22.90;;;16.45;;
38435;SDS011;24220;48.168;14.024;2023-03-05T01:01:19;24.30;;;16.67;;
38435;SDS011;24220;48.168;14.024;2023-03-05T01:03:46;20.35;;;15.82;;
38435;SDS011;24220;48.168;14.024;2023-03-05T01:06:16;21.05;;;16.17;;
38435;SDS011;24220;48.168;14.024;2023-03-05T01:08:44;21.17;;;16.35;;
38435;SDS011;24220;48.168;14.024;2023-03-05T01:11:11;22.30;;;15.90;;
38435;SDS011;24220;48.168;14.024;2023-03-05T01:13:39;21.23;;;15.77;;
38435;SDS011;24220;48.168;14.024;2023-03-05T01:16:09;23.55;;;15.68;;
38435;SDS011;24220;48.168;14.024;2023-03-05T01:18:39;21.25;;;14.93;;
38435;SDS011;24220;48.168;14.024;2023-03-05T01:21:06;23.35;;;15.55;;
38435;SDS011;24220;48.168;14.024;2023-03-05T01:23:34;23.33;;;16.00;;
38435;SDS011;24220;48.168;14.024;2023-03-05T01:26:05;21.15;;;14.40;;
38435;SDS011;24220;48.168;14.024;2023-03-05T01:28:34;19.02;;;14.25;;
38435;SDS011;24220;48.168;14.024;2023-03-05T01:31:01;17.67;;;14.15;;
38435;SDS011;24220;48.168;14.024;2023-03-05T01:33:35;21.77;;;15.07;;
38435;SDS011;24220;48.168;14.024;2023-03-05T01:36:05;23.27;;;15.65;;
38435;SDS011;24220;48.168;14.024;2023-03-05T01:41:01;19.35;;;14.60;;
38435;SDS011;24220;48.168;14.024;2023-03-05T01:43:29;20.98;;;14.60;;
38435;SDS011;24220;48.168;14.024;2023-03-05T01:51:26;20.90;;;14.95;;
38435;SDS011;24220;48.168;14.024;2023-03-05T01:53:57;22.17;;;15.10;;
38435;SDS011;24220;48.168;14.024;2023-03-05T01:56:26;19.40;;;14.73;;
38435;SDS011;24220;48.168;14.024;2023-03-05T01:58:55;24.08;;;16.02;;
38435;SDS011;24220;48.168;14.024;2023-03-05T02:01:35;21.30;;;15.60;;
38435;SDS011;24220;48.168;14.024;2023-03-05T02:04:11;21.30;;;14.67;;
38435;SDS011;24220;48.168;14.024;2023-03-05T02:06:41;23.05;;;16.60;;
38435;SDS011;24220;48.168;14.024;2023-03-05T02:09:10;23.65;;;16.45;;
38435;SDS011;24220;48.168;14.024;2023-03-05T02:11:38;20.25;;;15.48;;
38435;SDS011;24220;48.168;14.024;2023-03-05T02:14:05;24.15;;;16.30;;
38435;SDS011;24220;48.168;14.024;2023-03-05T02:16:36;22.83;;;16.23;;
38435;SDS011;24220;48.168;14.024;2023-03-05T02:19:10;21.80;;;15.75;;
38435;SDS011;24220;48.168;14.024;2023-03-05T02:21:44;23.08;;;15.80;;
38435;SDS011;24220;48.168;14.024;2023-03-05T02:24:14;22.23;;;15.35;;
38435;SDS011;24220;48.168;14.024;2023-03-05T02:26:43;23.85;;;16.17;;
38435;SDS011;24220;48.168;14.024;2023-03-05T02:29:17;22.35;;;15.77;;
38435;SDS011;24220;48.168;14.024;2023-03-05T02:31:46;23.50;;;16.30;;
38435;SDS011;24220;48.168;14.024;2023-03-05T02:34:15;21.70;;;15.98;;
38435;SDS011;24220;48.168;14.024;2023-03-05T02:36:47;25.73;;;16.33;;
38435;SDS011;24220;48.168;14.024;2023-03-05T02:39:16;28.40;;;16.30;;
38435;SDS011;24220;48.168;14.024;2023-03-05T02:41:45;26.73;;;16.15;;
38435;SDS011;24220;48.168;14.024;2023-03-05T02:44:15;25.77;;;15.50;;
38435;SDS011;24220;48.168;14.024;2023-03-05T02:46:42;25.83;;;16.83;;
38435;SDS011;24220;48.168;14.024;2023-03-05T02:49:10;23.15;;;15.77;;
38435;SDS011;24220;48.168;14.024;2023-03-05T02:51:44;24.65;;;16.10;;
38435;SDS011;24220;48.168;14.024;2023-03-05T02:54:12;26.05;;;16.05;;
38435;SDS011;24220;48.168;14.024;2023-03-05T02:56:39;24.65;;;16.42;;
38435;SDS011;24220;48.168;14.024;2023-03-05T02:59:06;24.30;;;16.08;;
38435;SDS011;24220;48.168;14.024;2023-03-05T03:01:36;23.88;;;15.57;;
38435;SDS011;24220;48.168;14.024;2023-03-05T03:04:06;23.00;;;15.95;;
38435;SDS011;24220;48.168;14.024;2023-03-05T03:06:35;22.83;;;15.82;;
38435;SDS011;24220;48.168;14.024;2023-03-05T03:09:05;24.23;;;14.95;;
38435;SDS011;24220;48.168;14.024;2023-03-05T03:11:32;22.35;;;15.88;;
38435;SDS011;24220;48.168;14.024;2023-03-05T03:13:59;24.42;;;16.02;;
38435;SDS011;24220;48.168;14.024;2023-03-05T03:16:29;24.92;;;16.25;;
38435;SDS011;24220;48.168;14.024;2023-03-05T03:18:56;23.13;;;17.38;;
38435;SDS011;24220;48.168;14.024;2023-03-05T03:21:24;23.35;;;15.85;;
38435;SDS011;24220;48.168;14.024;2023-03-05T03:23:53;22.85;;;15.75;;
38435;SDS011;24220;48.168;14.024;2023-03-05T03:26:21;22.85;;;16.08;;
38435;SDS011;24220;48.168;14.024;2023-03-05T03:28:50;25.63;;;16.00;;
38435;SDS011;24220;48.168;14.024;2023-03-05T03:31:18;24.15;;;16.08;;
38435;SDS011;24220;48.168;14.024;2023-03-05T03:33:47;23.10;;;15.95;;
38435;SDS011;24220;48.168;14.024;2023-03-05T03:36:15;24.42;;;16.05;;
38435;SDS011;24220;48.168;14.024;2023-03-05T03:38:42;25.10;;;16.52;;
38435;SDS011;24220;48.168;14.024;2023-03-05T03:41:14;25.92;;;15.82;;
38435;SDS011;24220;48.168;14.024;2023-03-05T03:43:45;22.70;;;15.82;;
38435;SDS011;24220;48.168;14.024;2023-03-05T03:46:12;23.77;;;15.82;;
38435;SDS011;24220;48.168;14.024;2023-03-05T03:48:43;23.52;;;15.40;;
38435;SDS011;24220;48.168;14.024;2023-03-05T03:51:10;25.13;;;15.30;;
38435;SDS011;24220;48.168;14.024;2023-03-05T03:53:37;25.73;;;16.10;;
38435;SDS011;24220;48.168;14.024;2023-03-05T03:56:05;23.23;;;16.27;;
38435;SDS011;24220;48.168;14.024;2023-03-05T03:58:32;23.40;;;16.20;;
38435;SDS011;24220;48.168;14.024;2023-03-05T04:01:02;25.25;;;16.70;;
38435;SDS011;24220;48.168;14.024;2023-03-05T04:03:29;27.05;;;17.02;;
38435;SDS011;24220;48.168;14.024;2023-03-05T04:05:57;24.15;;;17.10;;
38435;SDS011;24220;48.168;14.024;2023-03-05T04:08:26;26.65;;;17.35;;
38435;SDS011;24220;48.168;14.024;2023-03-05T04:10:54;26.70;;;17.60;;
38435;SDS011;24220;48.168;14.024;2023-03-05T04:13:21;26.25;;;17.52;;
38435;SDS011;24220;48.168;14.024;2023-03-05T04:15:48;25.52;;;17.27;;
38435;SDS011;24220;48.168;14.024;2023-03-05T04:18:16;24.55;;;16.85;;
38435;SDS011;24220;48.168;14.024;2023-03-05T04:20:43;28.13;;;18.30;;
38435;SDS011;24220;48.168;14.024;2023-03-05T04:23:13;27.02;;;17.52;;
38435;SDS011;24220;48.168;14.024;2023-03-05T04:25:41;28.37;;;17.77;;
38435;SDS011;24220;48.168;14.024;2023-03-05T04:28:08;26.83;;;17.98;;
38435;SDS011;24220;48.168;14.024;2023-03-05T04:30:35;28.60;;;18.48;;
38435;SDS011;24220;48.168;14.024;2023-03-05T04:33:05;28.80;;;16.42;;
38435;SDS011;24220;48.168;14.024;2023-03-05T04:35:35;28.88;;;17.98;;
38435;SDS011;24220;48.168;14.024;2023-03-05T04:38:02;28.73;;;18.27;;
38435;SDS011;24220;48.168;14.024;2023-03-05T04:40:32;26.98;;;18.33;;
38435;SDS011;24220;48.168;14.024;2023-03-05T04:43:00;27.95;;;18.08;;
38435;SDS011;24220;48.168;14.024;2023-03-05T04:45:29;28.42;;;19.20;;
38435;SDS011;24220;48.168;14.024;2023-03-05T04:47:57;30.35;;;19.52;;
38435;SDS011;24220;48.168;14.024;2023-03-05T04:50:25;35.17;;;21.70;;
38435;SDS011;24220;48.168;14.024;2023-03-05T04:52:52;35.88;;;23.13;;
38435;SDS011;24220;48.168;14.024;2023-03-05T04:55:20;31.85;;;20.00;;
38435;SDS011;24220;48.168;14.024;2023-03-05T04:57:50;29.83;;;18.80;;
38435;SDS011;24220;48.168;14.024;2023-03-05T05:00:19;30.77;;;18.67;;
38435;SDS011;24220;48.168;14.024;2023-03-05T05:02:48;28.10;;;18.52;;
38435;SDS011;24220;48.168;14.024;2023-03-05T05:05:18;28.73;;;18.98;;
38435;SDS011;24220;48.168;14.024;2023-03-05T05:07:47;26.30;;;17.77;;
38435;SDS011;24220;48.168;14.024;2023-03-05T05:10:15;27.70;;;17.83;;
38435;SDS011;24220;48.168;14.024;2023-03-05T05:12:45;25.07;;;17.40;;
38435;SDS011;24220;48.168;14.024;2023-03-05T05:15:17;24.63;;;16.42;;
38435;SDS011;24220;48.168;14.024;2023-03-05T05:17:45;26.60;;;17.23;;
38435;SDS011;24220;48.168;14.024;2023-03-05T05:20:13;26.15;;;16.67;;
38435;SDS011;24220;48.168;14.024;2023-03-05T05:22:43;24.90;;;17.10;;
38435;SDS011;24220;48.168;14.024;2023-03-05T05:25:11;26.85;;;17.20;;
38435;SDS011;24220;48.168;14.024;2023-03-05T05:27:40;26.77;;;17.10;;
38435;SDS011;24220;48.168;14.024;2023-03-05T05:30:08;27.40;;;17.17;;
38435;SDS011;24220;48.168;14.024;2023-03-05T05:32:36;27.40;;;17.88;;
38435;SDS011;24220;48.168;14.024;2023-03-05T05:35:03;26.42;;;17.35;;
38435;SDS011;24220;48.168;14.024;2023-03-05T05:37:31;27.65;;;17.85;;
38435;SDS011;24220;48.168;14.024;2023-03-05T05:40:00;28.33;;;18.13;;
38435;SDS011;24220;48.168;14.024;2023-03-05T05:42:31;28.10;;;17.50;;
38435;SDS011;24220;48.168;14.024;2023-03-05T05:44:59;23.25;;;16.75;;
38435;SDS011;24220;48.168;14.024;2023-03-05T05:47:28;26.48;;;17.42;;
38435;SDS011;24220;48.168;14.024;2023-03-05T05:49:56;26.42;;;17.58;;
38435;SDS011;24220;48.168;14.024;2023-03-05T05:52:23;25.60;;;16.80;;
38435;SDS011;24220;48.168;14.024;2023-03-05T05:54:53;26.73;;;17.00;;
38435;SDS011;24220;48.168;14.024;2023-03-05T05:57:20;26.48;;;17.20;;
38435;SDS011;24220;48.168;14.024;2023-03-05T05:59:50;27.73;;;17.95;;
38435;SDS011;24220;48.168;14.024;2023-03-05T06:02:18;25.10;;;15.93;;
38435;SDS011;24220;48.168;14.024;2023-03-05T06:04:45;26.00;;;17.23;;
38435;SDS011;24220;48.168;14.024;2023-03-05T06:07:12;27.90;;;17.10;;
38435;SDS011;24220;48.168;14.024;2023-03-05T06:09:40;27.30;;;18.73;;
38435;SDS011;24220;48.168;14.024;2023-03-05T06:12:07;29.40;;;17.63;;
38435;SDS011;24220;48.168;14.024;2023-03-05T06:14:34;24.23;;;15.85;;
38435;SDS011;24220;48.168;14.024;2023-03-05T06:17:02;25.33;;;16.23;;
38435;SDS011;24220;48.168;14.024;2023-03-05T06:19:38;21.70;;;15.40;;
38435;SDS011;24220;48.168;14.024;2023-03-05T06:22:05;23.80;;;14.55;;
38435;SDS011;24220;48.168;14.024;2023-03-05T06:24:33;25.90;;;15.65;;
38435;SDS011;24220;48.168;14.024;2023-03-05T06:27:03;24.38;;;15.35;;
38435;SDS011;24220;48.168;14.024;2023-03-05T06:29:31;24.42;;;15.95;;
38435;SDS011;24220;48.168;14.024;2023-03-05T06:31:59;26.80;;;16.88;;
38435;SDS011;24220;48.168;14.024;2023-03-05T06:34:26;23.23;;;15.48;;
38435;SDS011;24220;48.168;14.024;2023-03-05T06:36:55;25.85;;;16.13;;
38435;SDS011;24220;48.168;14.024;2023-03-05T06:39:23;24.75;;;16.20;;
38435;SDS011;24220;48.168;14.024;2023-03-05T06:41:50;25.75;;;16.73;;
38435;SDS011;24220;48.168;14.024;2023-03-05T06:44:17;27.30;;;16.77;;
38435;SDS011;24220;48.168;14.024;2023-03-05T06:46:51;27.70;;;16.75;;
38435;SDS011;24220;48.168;14.024;2023-03-05T06:49:19;29.98;;;17.55;;
38435;SDS011;24220;48.168;14.024;2023-03-05T06:51:46;26.10;;;16.85;;
38435;SDS011;24220;48.168;14.024;2023-03-05T06:54:14;28.77;;;17.27;;
38435;SDS011;24220;48.168;14.024;2023-03-05T06:56:46;29.13;;;17.08;;
38435;SDS011;24220;48.168;14.024;2023-03-05T06:59:14;27.83;;;17.27;;
38435;SDS011;24220;48.168;14.024;2023-03-05T07:01:43;27.25;;;17.38;;
38435;SDS011;24220;48.168;14.024;2023-03-05T07:04:11;29.97;;;18.07;;
38435;SDS011;24220;48.168;14.024;2023-03-05T07:06:39;29.20;;;17.83;;
38435;SDS011;24220;48.168;14.024;2023-03-05T07:09:12;25.75;;;16.95;;
38435;SDS011;24220;48.168;14.024;2023-03-05T07:11:40;25.90;;;17.70;;
38435;SDS011;24220;48.168;14.024;2023-03-05T07:14:08;27.90;;;17.92;;
38435;SDS011;24220;48.168;14.024;2023-03-05T07:16:35;29.08;;;17.95;;
38435;SDS011;24220;48.168;14.024;2023-03-05T07:19:05;27.63;;;18.27;;
38435;SDS011;24220;48.168;14.024;2023-03-05T07:21:33;28.48;;;17.48;;
38435;SDS011;24220;48.168;14.024;2023-03-05T07:24:08;26.08;;;17.38;;
38435;SDS011;24220;48.168;14.024;2023-03-05T07:26:37;27.60;;;18.10;;
38435;SDS011;24220;48.168;14.024;2023-03-05T07:29:05;28.65;;;18.58;;
38435;SDS011;24220;48.168;14.024;2023-03-05T07:31:34;25.63;;;17.88;;
38435;SDS011;24220;48.168;14.024;2023-03-05T07:34:02;27.48;;;18.35;;
38435;SDS011;24220;48.168;14.024;2023-03-05T07:36:30;27.88;;;17.45;;
38435;SDS011;24220;48.168;14.024;2023-03-05T07:38:57;28.50;;;18.25;;
38435;SDS011;24220;48.168;14.024;2023-03-05T07:41:27;27.45;;;18.40;;
38435;SDS011;24220;48.168;14.024;2023-03-05T07:43:54;27.98;;;18.67;;
38435;SDS011;24220;48.168;14.024;2023-03-05T07:46:23;28.33;;;17.77;;
38435;SDS011;24220;48.168;14.024;2023-03-05T07:48:53;29.67;;;18.92;;
38435;SDS011;24220;48.168;14.024;2023-03-05T07:51:24;30.73;;;18.98;;
38435;SDS011;24220;48.168;14.024;2023-03-05T07:53:53;31.50;;;19.90;;
38435;SDS011;24220;48.168;14.024;2023-03-05T07:56:30;28.58;;;17.35;;
38435;SDS011;24220;48.168;14.024;2023-03-05T07:59:03;30.30;;;18.00;;
38435;SDS011;24220;48.168;14.024;2023-03-05T08:01:35;28.10;;;18.23;;
38435;SDS011;24220;48.168;14.024;2023-03-05T08:04:03;33.15;;;20.50;;
38435;SDS011;24220;48.168;14.024;2023-03-05T08:06:32;37.47;;;24.52;;
38435;SDS011;24220;48.168;14.024;2023-03-05T08:09:00;35.83;;;21.98;;
38435;SDS011;24220;48.168;14.024;2023-03-05T08:11:27;33.80;;;21.40;;
38435;SDS011;24220;48.168;14.024;2023-03-05T08:13:54;28.48;;;19.58;;
38435;SDS011;24220;48.168;14.024;2023-03-05T08:16:25;33.28;;;20.58;;
38435;SDS011;24220;48.168;14.024;2023-03-05T08:18:53;32.53;;;20.38;;
38435;SDS011;24220;48.168;14.024;2023-03-05T08:21:24;32.33;;;21.88;;
38435;SDS011;24220;48.168;14.024;2023-03-05T08:24:02;40.70;;;26.65;;
38435;SDS011;24220;48.168;14.024;2023-03-05T08:26:34;35.65;;;22.67;;
38435;SDS011;24220;48.168;14.024;2023-03-05T08:29:05;33.30;;;20.85;;
38435;SDS011;24220;48.168;14.024;2023-03-05T08:31:36;32.97;;;20.27;;
38435;SDS011;24220;48.168;14.024;2023-03-05T08:34:05;31.35;;;19.08;;
38435;SDS011;24220;48.168;14.024;2023-03-05T08:36:32;39.03;;;24.23;;
38435;SDS011;24220;48.168;14.024;2023-03-05T08:39:00;35.92;;;24.60;;
38435;SDS011;24220;48.168;14.024;2023-03-05T08:41:34;36.65;;;25.00;;
38435;SDS011;24220;48.168;14.024;2023-03-05T08:44:05;30.25;;;20.75;;
38435;SDS011;24220;48.168;14.024;2023-03-05T08:46:35;37.22;;;20.85;;
38435;SDS011;24220;48.168;14.024;2023-03-05T08:51:33;30.65;;;18.77;;
38435;SDS011;24220;48.168;14.024;2023-03-05T08:54:04;27.90;;;18.50;;
38435;SDS011;24220;48.168;14.024;2023-03-05T08:56:33;28.80;;;17.85;;
38435;SDS011;24220;48.168;14.024;2023-03-05T08:59:03;28.75;;;18.83;;
38435;SDS011;24220;48.168;14.024;2023-03-05T09:01:31;31.48;;;18.35;;
38435;SDS011;24220;48.168;14.024;2023-03-05T09:03:59;29.23;;;18.35;;
38435;SDS011;24220;48.168;14.024;2023-03-05T09:06:29;28.73;;;18.55;;
38435;SDS011;24220;48.168;14.024;2023-03-05T09:08:56;29.00;;;17.70;;
38435;SDS011;24220;48.168;14.024;2023-03-05T09:11:24;29.58;;;17.77;;
38435;SDS011;24220;48.168;14.024;2023-03-05T09:13:51;30.75;;;18.05;;
38435;SDS011;24220;48.168;14.024;2023-03-05T09:16:18;27.42;;;17.90;;
38435;SDS011;24220;48.168;14.024;2023-03-05T09:18:49;28.15;;;19.38;;
38435;SDS011;24220;48.168;14.024;2023-03-05T09:21:16;30.20;;;18.90;;
38435;SDS011;24220;48.168;14.024;2023-03-05T09:23:46;28.08;;;18.40;;
38435;SDS011;24220;48.168;14.024;2023-03-05T09:26:14;27.92;;;17.38;;
38435;SDS011;24220;48.168;14.024;2023-03-05T09:28:45;23.85;;;16.77;;
38435;SDS011;24220;48.168;14.024;2023-03-05T09:31:13;27.83;;;16.40;;
38435;SDS011;24220;48.168;14.024;2023-03-05T09:33:43;24.27;;;15.75;;
38435;SDS011;24220;48.168;14.024;2023-03-05T09:36:21;24.85;;;15.77;;
38435;SDS011;24220;48.168;14.024;2023-03-05T09:38:51;25.58;;;16.23;;
38435;SDS011;24220;48.168;14.024;2023-03-05T09:52:40;22.48;;;14.48;;
38435;SDS011;24220;48.168;14.024;2023-03-05T09:55:47;21.52;;;13.23;;
38435;SDS011;24220;48.168;14.024;2023-03-05T09:58:56;24.05;;;14.23;;
38435;SDS011;24220;48.168;14.024;2023-03-05T10:01:03;21.15;;;13.65;;
38435;SDS011;24220;48.168;14.024;2023-03-05T10:08:43;22.65;;;13.98;;
38435;SDS011;24220;48.168;14.024;2023-03-05T10:11:18;22.80;;;13.65;;
38435;SDS011;24220;48.168;14.024;2023-03-05T10:14:03;21.27;;;13.23;;
38435;SDS011;24220;48.168;14.024;2023-03-05T10:19:20;24.95;;;13.75;;
38435;SDS011;24220;48.168;14.024;2023-03-05T10:27:33;22.30;;;14.07;;
38435;SDS011;24220;48.168;14.024;2023-03-05T10:30:17;22.00;;;14.30;;
38435;SDS011;24220;48.168;14.024;2023-03-05T10:36:16;20.15;;;13.10;;
38435;SDS011;24220;48.168;14.024;2023-03-05T10:42:24;23.00;;;14.27;;
38435;SDS011;24220;48.168;14.024;2023-03-05T10:44:58;23.88;;;14.05;;
38435;SDS011;24220;48.168;14.024;2023-03-05T10:48:10;22.38;;;14.32;;
38435;SDS011;24220;48.168;14.024;2023-03-05T10:50:29;20.58;;;13.07;;
38435;SDS011;24220;48.168;14.024;2023-03-05T10:53:16;28.05;;;15.43;;
38435;SDS011;24220;48.168;14.024;2023-03-05T10:55:50;22.70;;;13.80;;
38435;SDS011;24220;48.168;14.024;2023-03-05T11:06:28;19.55;;;12.45;;
38435;SDS011;24220;48.168;14.024;2023-03-05T11:14:46;26.13;;;14.00;;
38435;SDS011;24220;48.168;14.024;2023-03-05T11:17:31;20.77;;;13.63;;
38435;SDS011;24220;48.168;14.024;2023-03-05T11:25:46;20.60;;;12.75;;
38435;SDS011;24220;48.168;14.024;2023-03-05T11:36:35;19.35;;;12.50;;
38435;SDS011;24220;48.168;14.024;2023-03-05T11:41:42;18.63;;;12.10;;
38435;SDS011;24220;48.168;14.024;2023-03-05T11:44:22;16.10;;;11.52;;
38435;SDS011;24220;48.168;14.024;2023-03-05T11:46:56;18.65;;;12.00;;
38435;SDS011;24220;48.168;14.024;2023-03-05T11:49:45;18.60;;;11.63;;
38435;SDS011;24220;48.168;14.024;2023-03-05T11:55:25;17.33;;;11.73;;
38435;SDS011;24220;48.168;14.024;2023-03-05T11:58:27;20.10;;;12.30;;
38435;SDS011;24220;48.168;14.024;2023-03-05T12:01:05;18.35;;;11.27;;
38435;SDS011;24220;48.168;14.024;2023-03-05T12:03:44;18.52;;;12.75;;
38435;SDS011;24220;48.168;14.024;2023-03-05T12:09:16;19.27;;;12.50;;
38435;SDS011;24220;48.168;14.024;2023-03-05T12:11:59;15.90;;;10.82;;
38435;SDS011;24220;48.168;14.024;2023-03-05T12:14:48;16.73;;;11.35;;
38435;SDS011;24220;48.168;14.024;2023-03-05T12:17:26;18.27;;;11.77;;
38435;SDS011;24220;48.168;14.024;2023-03-05T12:23:04;18.95;;;11.23;;
38435;SDS011;24220;48.168;14.024;2023-03-05T12:25:32;18.42;;;11.55;;
38435;SDS011;24220;48.168;14.024;2023-03-05T12:28:56;16.42;;;11.60;;
38435;SDS011;24220;48.168;14.024;2023-03-05T12:33:37;17.65;;;12.38;;
38435;SDS011;24220;48.168;14.024;2023-03-05T12:38:48;17.95;;;11.95;;
38435;SDS011;24220;48.168;14.024;2023-03-05T12:51:46;16.10;;;10.68;;
38435;SDS011;24220;48.168;14.024;2023-03-05T12:54:20;20.05;;;12.23;;
38435;SDS011;24220;48.168;14.024;2023-03-05T12:56:48;18.67;;;11.43;;
38435;SDS011;24220;48.168;14.024;2023-03-05T12:59:18;18.02;;;11.80;;
38435;SDS011;24220;48.168;14.024;2023-03-05T13:02:01;18.08;;;11.88;;
38435;SDS011;24220;48.168;14.024;2023-03-05T13:04:30;19.25;;;12.32;;
38435;SDS011;24220;48.168;14.024;2023-03-05T13:07:03;17.08;;;11.65;;
38435;SDS011;24220;48.168;14.024;2023-03-05T13:09:38;19.15;;;12.32;;
38435;SDS011;24220;48.168;14.024;2023-03-05T13:12:09;18.58;;;11.15;;
38435;SDS011;24220;48.168;14.024;2023-03-05T13:14:40;18.65;;;11.88;;
38435;SDS011;24220;48.168;14.024;2023-03-05T13:20:01;18.30;;;11.02;;
38435;SDS011;24220;48.168;14.024;2023-03-05T13:22:33;16.90;;;11.52;;
38435;SDS011;24220;48.168;14.024;2023-03-05T13:25:14;17.30;;;11.18;;
38435;SDS011;24220;48.168;14.024;2023-03-05T13:27:46;18.63;;;12.02;;
38435;SDS011;24220;48.168;14.024;2023-03-05T13:30:23;19.90;;;12.07;;
38435;SDS011;24220;48.168;14.024;2023-03-05T13:33:02;17.10;;;11.05;;
38435;SDS011;24220;48.168;14.024;2023-03-05T13:35:30;16.83;;;11.18;;
38435;SDS011;24220;48.168;14.024;2023-03-05T13:38:00;16.67;;;11.13;;
38435;SDS011;24220;48.168;14.024;2023-03-05T13:40:29;19.20;;;11.85;;
38435;SDS011;24220;48.168;14.024;2023-03-05T13:43:10;16.45;;;10.63;;
38435;SDS011;24220;48.168;14.024;2023-03-05T13:45:51;18.92;;;11.80;;
38435;SDS011;24220;48.168;14.024;2023-03-05T13:48:25;18.10;;;12.45;;
38435;SDS011;24220;48.168;14.024;2023-03-05T13:50:56;19.63;;;11.57;;
38435;SDS011;24220;48.168;14.024;2023-03-05T13:53:29;19.00;;;12.43;;
38435;SDS011;24220;48.168;14.024;2023-03-05T13:55:59;19.90;;;11.95;;
38435;SDS011;24220;48.168;14.024;2023-03-05T14:01:25;19.25;;;12.32;;
38435;SDS011;24220;48.168;14.024;2023-03-05T14:04:24;19.48;;;11.93;;
38435;SDS011;24220;48.168;14.024;2023-03-05T14:09:28;17.55;;;11.43;;
38435;SDS011;24220;48.168;14.024;2023-03-05T14:14:35;18.35;;;11.95;;
38435;SDS011;24220;48.168;14.024;2023-03-05T14:17:20;18.77;;;11.77;;
38435;SDS011;24220;48.168;14.024;2023-03-05T14:20:06;17.88;;;11.35;;
38435;SDS011;24220;48.168;14.024;2023-03-05T14:22:43;17.80;;;11.00;;
38435;SDS011;24220;48.168;14.024;2023-03-05T14:28:01;18.58;;;11.45;;
38435;SDS011;24220;48.168;14.024;2023-03-05T14:30:31;18.85;;;12.05;;
38435;SDS011;24220;48.168;14.024;2023-03-05T14:33:02;17.27;;;11.90;;
38435;SDS011;24220;48.168;14.024;2023-03-05T14:35:30;18.65;;;11.85;;
38435;SDS011;24220;48.168;14.024;2023-03-05T14:38:00;19.55;;;11.52;;
38435;SDS011;24220;48.168;14.024;2023-03-05T14:40:29;16.25;;;11.10;;
38435;SDS011;24220;48.168;14.024;2023-03-05T14:47:56;14.20;;;10.45;;
38435;SDS011;24220;48.168;14.024;2023-03-05T14:50:33;15.02;;;9.80;;
38435;SDS011;24220;48.168;14.024;2023-03-05T14:53:07;16.13;;;10.00;;
38435;SDS011;24220;48.168;14.024;2023-03-05T14:55:39;14.07;;;9.93;;
38435;SDS011;24220;48.168;14.024;2023-03-05T14:58:13;13.10;;;9.57;;
38435;SDS011;24220;48.168;14.024;2023-03-05T15:00:44;15.18;;;10.82;;
38435;SDS011;24220;48.168;14.024;2023-03-05T15:03:12;15.57;;;9.95;;
38435;SDS011;24220;48.168;14.024;2023-03-05T15:05:41;13.68;;;9.43;;
38435;SDS011;24220;48.168;14.024;2023-03-05T15:08:13;14.05;;;9.30;;
38435;SDS011;24220;48.168;14.024;2023-03-05T15:10:46;14.40;;;10.02;;
38435;SDS011;24220;48.168;14.024;2023-03-05T15:13:16;13.60;;;9.48;;
38435;SDS011;24220;48.168;14.024;2023-03-05T15:15:48;15.25;;;9.45;;
38435;SDS011;24220;48.168;14.024;2023-03-05T15:18:20;12.57;;;9.35;;
38435;SDS011;24220;48.168;14.024;2023-03-05T15:20:48;14.88;;;9.30;;
38435;SDS011;24220;48.168;14.024;2023-03-05T15:23:20;12.07;;;9.23;;
38435;SDS011;24220;48.168;14.024;2023-03-05T15:25:47;12.15;;;8.77;;
38435;SDS011;24220;48.168;14.024;2023-03-05T15:28:15;12.80;;;9.50;;
38435;SDS011;24220;48.168;14.024;2023-03-05T15:30:46;14.97;;;8.77;;
38435;SDS011;24220;48.168;14.024;2023-03-05T15:33:14;16.70;;;10.23;;
38435;SDS011;24220;48.168;14.024;2023-03-05T15:35:43;13.68;;;9.27;;
38435;SDS011;24220;48.168;14.024;2023-03-05T15:38:11;15.68;;;9.52;;
38435;SDS011;24220;48.168;14.024;2023-03-05T15:40:40;13.20;;;9.13;;
38435;SDS011;24220;48.168;14.024;2023-03-05T15:43:09;14.15;;;9.52;;
38435;SDS011;24220;48.168;14.024;2023-03-05T15:45:39;13.30;;;9.35;;
38435;SDS011;24220;48.168;14.024;2023-03-05T15:48:07;15.40;;;10.02;;
38435;SDS011;24220;48.168;14.024;2023-03-05T15:50:38;12.85;;;8.85;;
38435;SDS011;24220;48.168;14.024;2023-03-05T15:53:10;11.40;;;8.75;;
38435;SDS011;24220;48.168;14.024;2023-03-05T15:55:42;14.25;;;8.77;;
38435;SDS011;24220;48.168;14.024;2023-03-05T15:58:14;13.52;;;8.55;;
38435;SDS011;24220;48.168;14.024;2023-03-05T16:00:43;13.40;;;8.98;;
38435;SDS011;24220;48.168;14.024;2023-03-05T16:03:15;13.40;;;9.25;;
38435;SDS011;24220;48.168;14.024;2023-03-05T16:05:42;14.60;;;10.02;;
38435;SDS011;24220;48.168;14.024;2023-03-05T16:08:13;15.48;;;9.40;;
38435;SDS011;24220;48.168;14.024;2023-03-05T16:10:43;14.25;;;9.60;;
38435;SDS011;24220;48.168;14.024;2023-03-05T16:13:13;12.82;;;9.07;;
38435;SDS011;24220;48.168;14.024;2023-03-05T16:15:45;17.02;;;10.02;;
38435;SDS011;24220;48.168;14.024;2023-03-05T16:18:19;14.77;;;9.93;;
38435;SDS011;24220;48.168;14.024;2023-03-05T16:20:54;15.57;;;10.27;;
38435;SDS011;24220;48.168;14.024;2023-03-05T16:23:22;17.40;;;11.02;;
38435;SDS011;24220;48.168;14.024;2023-03-05T16:25:50;15.20;;;9.93;;
38435;SDS011;24220;48.168;14.024;2023-03-05T16:28:18;16.50;;;9.57;;